sensor_id;sensor_type;location;lat;lon;timestamp;temperature;humidity
28374;DHT22;15616;40.148;-102.718;2023-02-20T00:00:47;20.10;52.40
28374;DHT22;15616;40.148;-102.718;2023-02-20T00:03:14;20.10;52.40
28374;DHT22;15616;40.148;-102.718;2023-02-20T00:05:40;20.10;52.40
28374;DHT22;15616;40.148;-102.718;2023-02-20T00:08:06;20.10;52.40
28374;DHT22;15616;40.148;-102.718;2023-02-20T00:10:32;20.10;52.40
28374;DHT22;15616;40.148;-102.718;2023-02-20T00:12:58;20.00;52.30
28374;DHT22;15616;40.148;-102.718;2023-02-20T00:15:24;20.00;52.30
28374;DHT22;15616;40.148;-102.718;2023-02-20T00:17:50;20.10;52.40
28374;DHT22;15616;40.148;-102.718;2023-02-20T00:20:20;20.10;52.40
28374;DHT22;15616;40.148;-102.718;2023-02-20T00:22:47;20.00;52.30
28374;DHT22;15616;40.148;-102.718;2023-02-20T00:25:14;20.00;52.30
28374;DHT22;15616;40.148;-102.718;2023-02-20T00:27:42;20.00;52.50
28374;DHT22;15616;40.148;-102.718;2023-02-20T00:30:14;20.00;52.30
28374;DHT22;15616;40.148;-102.718;2023-02-20T00:32:40;20.00;52.30
28374;DHT22;15616;40.148;-102.718;2023-02-20T00:35:09;20.00;52.40
28374;DHT22;15616;40.148;-102.718;2023-02-20T00:37:35;20.00;52.40
28374;DHT22;15616;40.148;-102.718;2023-02-20T00:40:03;20.00;52.40
28374;DHT22;15616;40.148;-102.718;2023-02-20T00:42:29;20.00;53.00
28374;DHT22;15616;40.148;-102.718;2023-02-20T00:44:55;20.10;52.40
28374;DHT22;15616;40.148;-102.718;2023-02-20T00:47:21;20.10;52.40
28374;DHT22;15616;40.148;-102.718;2023-02-20T00:49:47;20.00;52.30
28374;DHT22;15616;40.148;-102.718;2023-02-20T00:52:13;20.10;52.40
28374;DHT22;15616;40.148;-102.718;2023-02-20T00:54:39;20.00;52.30
28374;DHT22;15616;40.148;-102.718;2023-02-20T00:57:05;20.00;52.30
28374;DHT22;15616;40.148;-102.718;2023-02-20T00:59:31;20.00;52.30
28374;DHT22;15616;40.148;-102.718;2023-02-20T01:01:57;20.00;52.30
28374;DHT22;15616;40.148;-102.718;2023-02-20T01:04:23;20.00;52.30
28374;DHT22;15616;40.148;-102.718;2023-02-20T01:06:49;20.10;52.40
28374;DHT22;15616;40.148;-102.718;2023-02-20T01:09:15;20.10;52.30
28374;DHT22;15616;40.148;-102.718;2023-02-20T01:11:42;20.00;52.30
28374;DHT22;15616;40.148;-102.718;2023-02-20T01:14:08;20.00;52.30
28374;DHT22;15616;40.148;-102.718;2023-02-20T01:16:34;20.00;52.30
28374;DHT22;15616;40.148;-102.718;2023-02-20T01:19:00;20.00;52.30
28374;DHT22;15616;40.148;-102.718;2023-02-20T01:21:26;20.00;52.30
28374;DHT22;15616;40.148;-102.718;2023-02-20T01:23:52;20.00;52.30
28374;DHT22;15616;40.148;-102.718;2023-02-20T01:26:18;20.10;52.40
28374;DHT22;15616;40.148;-102.718;2023-02-20T01:28:44;20.10;52.40
28374;DHT22;15616;40.148;-102.718;2023-02-20T01:31:10;20.10;52.30
28374;DHT22;15616;40.148;-102.718;2023-02-20T01:33:40;20.10;52.30
28374;DHT22;15616;40.148;-102.718;2023-02-20T01:36:07;20.10;52.30
28374;DHT22;15616;40.148;-102.718;2023-02-20T01:38:33;20.10;52.30
28374;DHT22;15616;40.148;-102.718;2023-02-20T01:40:59;20.10;52.20
28374;DHT22;15616;40.148;-102.718;2023-02-20T01:43:28;20.10;52.20
28374;DHT22;15616;40.148;-102.718;2023-02-20T01:45:54;20.10;52.20
28374;DHT22;15616;40.148;-102.718;2023-02-20T01:48:39;20.10;52.20
28374;DHT22;15616;40.148;-102.718;2023-02-20T01:51:05;20.10;52.30
28374;DHT22;15616;40.148;-102.718;2023-02-20T01:53:31;20.10;52.30
28374;DHT22;15616;40.148;-102.718;2023-02-20T01:56:00;20.10;52.30
28374;DHT22;15616;40.148;-102.718;2023-02-20T01:58:30;20.00;52.20
28374;DHT22;15616;40.148;-102.718;2023-02-20T02:00:59;20.00;52.20
28374;DHT22;15616;40.148;-102.718;2023-02-20T02:03:29;20.00;52.30
28374;DHT22;15616;40.148;-102.718;2023-02-20T02:06:04;20.00;52.30
28374;DHT22;15616;40.148;-102.718;2023-02-20T02:08:33;20.00;52.30
28374;DHT22;15616;40.148;-102.718;2023-02-20T02:11:02;20.00;52.30
28374;DHT22;15616;40.148;-102.718;2023-02-20T02:13:30;20.00;52.30
28374;DHT22;15616;40.148;-102.718;2023-02-20T02:22:10;20.00;52.30
28374;DHT22;15616;40.148;-102.718;2023-02-20T02:24:57;20.10;52.30
28374;DHT22;15616;40.148;-102.718;2023-02-20T02:41:53;20.10;52.30
28374;DHT22;15616;40.148;-102.718;2023-02-20T02:49:59;20.00;52.30
28374;DHT22;15616;40.148;-102.718;2023-02-20T02:52:27;20.00;52.30
28374;DHT22;15616;40.148;-102.718;2023-02-20T02:55:07;20.10;52.30
28374;DHT22;15616;40.148;-102.718;2023-02-20T02:57:33;20.10;52.30
28374;DHT22;15616;40.148;-102.718;2023-02-20T03:00:07;20.10;52.30
28374;DHT22;15616;40.148;-102.718;2023-02-20T03:05:12;20.10;52.20
28374;DHT22;15616;40.148;-102.718;2023-02-20T03:07:40;20.10;52.20
28374;DHT22;15616;40.148;-102.718;2023-02-20T03:10:11;20.10;52.20
28374;DHT22;15616;40.148;-102.718;2023-02-20T03:12:49;20.10;52.20
28374;DHT22;15616;40.148;-102.718;2023-02-20T03:15:27;20.10;52.20
28374;DHT22;15616;40.148;-102.718;2023-02-20T03:20:47;20.10;52.20
28374;DHT22;15616;40.148;-102.718;2023-02-20T03:23:28;20.10;52.20
28374;DHT22;15616;40.148;-102.718;2023-02-20T03:26:02;20.10;52.20
28374;DHT22;15616;40.148;-102.718;2023-02-20T03:28:42;20.10;52.20
28374;DHT22;15616;40.148;-102.718;2023-02-20T03:31:16;20.00;52.80
28374;DHT22;15616;40.148;-102.718;2023-02-20T03:33:54;20.10;52.30
28374;DHT22;15616;40.148;-102.718;2023-02-20T03:36:47;20.00;52.90
28374;DHT22;15616;40.148;-102.718;2023-02-20T03:39:37;20.10;52.30
28374;DHT22;15616;40.148;-102.718;2023-02-20T03:42:23;20.10;52.30
28374;DHT22;15616;40.148;-102.718;2023-02-20T03:45:09;20.10;52.20
28374;DHT22;15616;40.148;-102.718;2023-02-20T03:47:40;20.10;52.20
28374;DHT22;15616;40.148;-102.718;2023-02-20T03:50:09;20.10;52.20
28374;DHT22;15616;40.148;-102.718;2023-02-20T03:52:55;20.10;52.20
28374;DHT22;15616;40.148;-102.718;2023-02-20T03:55:22;20.10;52.20
28374;DHT22;15616;40.148;-102.718;2023-02-20T03:57:54;20.10;52.20
28374;DHT22;15616;40.148;-102.718;2023-02-20T04:00:27;20.10;52.10
28374;DHT22;15616;40.148;-102.718;2023-02-20T04:02:58;20.10;52.10
28374;DHT22;15616;40.148;-102.718;2023-02-20T04:05:29;20.10;52.10
28374;DHT22;15616;40.148;-102.718;2023-02-20T04:07:58;20.10;52.10
28374;DHT22;15616;40.148;-102.718;2023-02-20T04:10:29;20.10;52.10
28374;DHT22;15616;40.148;-102.718;2023-02-20T04:12:57;20.10;52.20
28374;DHT22;15616;40.148;-102.718;2023-02-20T04:15:25;20.10;52.20
28374;DHT22;15616;40.148;-102.718;2023-02-20T04:17:58;20.00;52.10
28374;DHT22;15616;40.148;-102.718;2023-02-20T04:20:25;20.10;52.20
28374;DHT22;15616;40.148;-102.718;2023-02-20T04:22:53;20.10;52.20
28374;DHT22;15616;40.148;-102.718;2023-02-20T04:25:32;20.10;52.20
28374;DHT22;15616;40.148;-102.718;2023-02-20T04:28:03;20.10;52.20
28374;DHT22;15616;40.148;-102.718;2023-02-20T04:30:30;20.10;52.20
28374;DHT22;15616;40.148;-102.718;2023-02-20T04:32:56;20.10;52.20
28374;DHT22;15616;40.148;-102.718;2023-02-20T04:35:22;20.10;52.20
28374;DHT22;15616;40.148;-102.718;2023-02-20T04:37:48;20.10;52.20
28374;DHT22;15616;40.148;-102.718;2023-02-20T04:40:19;20.10;52.20
28374;DHT22;15616;40.148;-102.718;2023-02-20T04:42:45;20.10;52.20
28374;DHT22;15616;40.148;-102.718;2023-02-20T04:45:11;20.10;52.20
28374;DHT22;15616;40.148;-102.718;2023-02-20T04:47:36;20.10;52.20
28374;DHT22;15616;40.148;-102.718;2023-02-20T04:50:03;20.00;52.10
28374;DHT22;15616;40.148;-102.718;2023-02-20T04:52:29;20.00;52.10
28374;DHT22;15616;40.148;-102.718;2023-02-20T04:54:55;20.00;52.10
28374;DHT22;15616;40.148;-102.718;2023-02-20T04:57:21;20.10;52.20
28374;DHT22;15616;40.148;-102.718;2023-02-20T04:59:47;20.00;52.10
28374;DHT22;15616;40.148;-102.718;2023-02-20T05:02:14;20.00;52.10
28374;DHT22;15616;40.148;-102.718;2023-02-20T05:04:40;20.10;52.20
28374;DHT22;15616;40.148;-102.718;2023-02-20T05:07:09;20.10;52.20
28374;DHT22;15616;40.148;-102.718;2023-02-20T05:09:35;20.10;52.10
28374;DHT22;15616;40.148;-102.718;2023-02-20T05:12:01;20.00;52.10
28374;DHT22;15616;40.148;-102.718;2023-02-20T05:14:27;20.00;52.20
28374;DHT22;15616;40.148;-102.718;2023-02-20T05:16:52;20.00;52.20
28374;DHT22;15616;40.148;-102.718;2023-02-20T05:19:18;20.00;52.10
28374;DHT22;15616;40.148;-102.718;2023-02-20T05:21:45;20.00;52.10
28374;DHT22;15616;40.148;-102.718;2023-02-20T05:24:30;20.00;52.20
28374;DHT22;15616;40.148;-102.718;2023-02-20T05:26:57;20.00;52.20
28374;DHT22;15616;40.148;-102.718;2023-02-20T05:29:23;20.00;52.10
28374;DHT22;15616;40.148;-102.718;2023-02-20T05:31:50;20.00;52.10
28374;DHT22;15616;40.148;-102.718;2023-02-20T05:34:16;20.00;52.10
28374;DHT22;15616;40.148;-102.718;2023-02-20T05:36:42;20.10;52.00
28374;DHT22;15616;40.148;-102.718;2023-02-20T05:39:08;20.10;51.90
28374;DHT22;15616;40.148;-102.718;2023-02-20T05:41:34;20.10;51.90
28374;DHT22;15616;40.148;-102.718;2023-02-20T05:43:59;20.10;51.90
28374;DHT22;15616;40.148;-102.718;2023-02-20T05:46:26;20.10;51.80
28374;DHT22;15616;40.148;-102.718;2023-02-20T05:48:53;20.10;51.80
28374;DHT22;15616;40.148;-102.718;2023-02-20T05:51:24;20.20;51.70
28374;DHT22;15616;40.148;-102.718;2023-02-20T05:53:51;20.20;51.60
28374;DHT22;15616;40.148;-102.718;2023-02-20T05:56:17;20.20;52.30
28374;DHT22;15616;40.148;-102.718;2023-02-20T05:58:44;20.20;51.60
28374;DHT22;15616;40.148;-102.718;2023-02-20T06:01:29;20.10;51.50
28374;DHT22;15616;40.148;-102.718;2023-02-20T06:03:55;20.10;51.50
28374;DHT22;15616;40.148;-102.718;2023-02-20T06:06:22;20.10;51.60
28374;DHT22;15616;40.148;-102.718;2023-02-20T06:08:48;20.10;51.60
28374;DHT22;15616;40.148;-102.718;2023-02-20T06:11:15;20.10;51.80
28374;DHT22;15616;40.148;-102.718;2023-02-20T06:13:43;20.10;51.60
28374;DHT22;15616;40.148;-102.718;2023-02-20T06:16:10;20.10;51.70
28374;DHT22;15616;40.148;-102.718;2023-02-20T06:18:40;20.10;51.60
28374;DHT22;15616;40.148;-102.718;2023-02-20T06:21:07;20.20;51.70
28374;DHT22;15616;40.148;-102.718;2023-02-20T06:23:37;20.20;51.60
28374;DHT22;15616;40.148;-102.718;2023-02-20T06:26:05;20.20;51.60
28374;DHT22;15616;40.148;-102.718;2023-02-20T06:28:31;20.20;51.60
28374;DHT22;15616;40.148;-102.718;2023-02-20T06:30:57;20.20;51.60
28374;DHT22;15616;40.148;-102.718;2023-02-20T06:33:23;20.20;51.50
28374;DHT22;15616;40.148;-102.718;2023-02-20T06:35:49;20.20;51.50
28374;DHT22;15616;40.148;-102.718;2023-02-20T06:38:15;20.20;51.50
28374;DHT22;15616;40.148;-102.718;2023-02-20T06:40:41;20.30;51.50
28374;DHT22;15616;40.148;-102.718;2023-02-20T06:43:07;20.20;51.40
28374;DHT22;15616;40.148;-102.718;2023-02-20T06:45:33;20.30;51.50
28374;DHT22;15616;40.148;-102.718;2023-02-20T06:47:59;20.30;51.40
28374;DHT22;15616;40.148;-102.718;2023-02-20T06:50:25;20.30;51.40
28374;DHT22;15616;40.148;-102.718;2023-02-20T06:52:51;20.30;51.40
28374;DHT22;15616;40.148;-102.718;2023-02-20T06:55:17;20.30;51.30
28374;DHT22;15616;40.148;-102.718;2023-02-20T06:57:43;20.30;51.30
28374;DHT22;15616;40.148;-102.718;2023-02-20T07:00:09;20.30;51.20
28374;DHT22;15616;40.148;-102.718;2023-02-20T07:02:35;20.30;51.20
28374;DHT22;15616;40.148;-102.718;2023-02-20T07:05:02;20.30;51.20
28374;DHT22;15616;40.148;-102.718;2023-02-20T07:07:29;20.30;51.10
28374;DHT22;15616;40.148;-102.718;2023-02-20T07:09:55;20.30;51.10
28374;DHT22;15616;40.148;-102.718;2023-02-20T07:12:21;20.30;51.10
28374;DHT22;15616;40.148;-102.718;2023-02-20T07:14:49;20.30;51.10
28374;DHT22;15616;40.148;-102.718;2023-02-20T07:17:15;20.30;51.10
28374;DHT22;15616;40.148;-102.718;2023-02-20T07:19:41;20.30;51.10
28374;DHT22;15616;40.148;-102.718;2023-02-20T07:22:07;20.30;51.10
28374;DHT22;15616;40.148;-102.718;2023-02-20T07:24:33;20.30;51.10
28374;DHT22;15616;40.148;-102.718;2023-02-20T07:27:01;20.30;51.10
28374;DHT22;15616;40.148;-102.718;2023-02-20T07:29:27;20.30;51.10
28374;DHT22;15616;40.148;-102.718;2023-02-20T07:31:53;20.30;51.10
28374;DHT22;15616;40.148;-102.718;2023-02-20T07:34:19;20.30;51.20
28374;DHT22;15616;40.148;-102.718;2023-02-20T07:36:45;20.30;51.20
28374;DHT22;15616;40.148;-102.718;2023-02-20T07:39:12;20.30;51.20
28374;DHT22;15616;40.148;-102.718;2023-02-20T07:41:38;20.30;51.20
28374;DHT22;15616;40.148;-102.718;2023-02-20T07:44:06;20.30;51.20
28374;DHT22;15616;40.148;-102.718;2023-02-20T07:46:32;20.40;51.20
28374;DHT22;15616;40.148;-102.718;2023-02-20T07:49:00;20.40;51.20
28374;DHT22;15616;40.148;-102.718;2023-02-20T07:51:26;20.40;51.10
28374;DHT22;15616;40.148;-102.718;2023-02-20T07:53:52;20.40;51.00
28374;DHT22;15616;40.148;-102.718;2023-02-20T07:56:20;20.40;51.00
28374;DHT22;15616;40.148;-102.718;2023-02-20T07:58:47;20.40;51.10
28374;DHT22;15616;40.148;-102.718;2023-02-20T08:01:14;20.40;51.10
28374;DHT22;15616;40.148;-102.718;2023-02-20T08:03:40;20.40;51.10
28374;DHT22;15616;40.148;-102.718;2023-02-20T08:06:06;20.40;51.10
28374;DHT22;15616;40.148;-102.718;2023-02-20T08:08:32;20.40;51.10
28374;DHT22;15616;40.148;-102.718;2023-02-20T08:10:58;20.40;51.10
28374;DHT22;15616;40.148;-102.718;2023-02-20T08:13:24;20.40;51.10
28374;DHT22;15616;40.148;-102.718;2023-02-20T08:15:50;20.40;51.20
28374;DHT22;15616;40.148;-102.718;2023-02-20T08:18:16;20.40;51.20
28374;DHT22;15616;40.148;-102.718;2023-02-20T08:20:42;20.30;51.20
28374;DHT22;15616;40.148;-102.718;2023-02-20T08:23:20;20.30;51.20
28374;DHT22;15616;40.148;-102.718;2023-02-20T08:25:46;20.30;51.20
28374;DHT22;15616;40.148;-102.718;2023-02-20T08:28:13;20.30;51.30
28374;DHT22;15616;40.148;-102.718;2023-02-20T08:30:39;20.30;51.20
28374;DHT22;15616;40.148;-102.718;2023-02-20T08:33:05;20.30;51.20
28374;DHT22;15616;40.148;-102.718;2023-02-20T08:35:32;20.30;51.20
28374;DHT22;15616;40.148;-102.718;2023-02-20T08:38:07;20.30;51.20
28374;DHT22;15616;40.148;-102.718;2023-02-20T08:40:46;20.40;51.20
28374;DHT22;15616;40.148;-102.718;2023-02-20T08:43:12;20.30;51.20
28374;DHT22;15616;40.148;-102.718;2023-02-20T08:45:38;20.30;51.20
28374;DHT22;15616;40.148;-102.718;2023-02-20T08:48:04;20.30;51.20
28374;DHT22;15616;40.148;-102.718;2023-02-20T08:50:31;20.40;51.20
28374;DHT22;15616;40.148;-102.718;2023-02-20T08:52:56;20.30;51.20
28374;DHT22;15616;40.148;-102.718;2023-02-20T08:55:24;20.40;51.30
28374;DHT22;15616;40.148;-102.718;2023-02-20T08:57:50;20.40;51.30
28374;DHT22;15616;40.148;-102.718;2023-02-20T09:00:16;20.30;51.20
28374;DHT22;15616;40.148;-102.718;2023-02-20T09:02:45;20.40;51.20
28374;DHT22;15616;40.148;-102.718;2023-02-20T09:05:12;20.40;51.20
28374;DHT22;15616;40.148;-102.718;2023-02-20T09:07:38;20.40;51.20
28374;DHT22;15616;40.148;-102.718;2023-02-20T09:10:04;20.40;51.20
28374;DHT22;15616;40.148;-102.718;2023-02-20T09:12:31;20.40;51.10
28374;DHT22;15616;40.148;-102.718;2023-02-20T09:14:57;20.40;51.10
28374;DHT22;15616;40.148;-102.718;2023-02-20T09:17:28;20.40;51.10
28374;DHT22;15616;40.148;-102.718;2023-02-20T09:19:54;20.40;51.20
28374;DHT22;15616;40.148;-102.718;2023-02-20T09:22:24;20.40;51.20
28374;DHT22;15616;40.148;-102.718;2023-02-20T09:24:53;20.40;51.20
28374;DHT22;15616;40.148;-102.718;2023-02-20T09:27:20;20.40;51.20
28374;DHT22;15616;40.148;-102.718;2023-02-20T09:29:46;20.40;51.20
28374;DHT22;15616;40.148;-102.718;2023-02-20T09:32:13;20.40;51.20
28374;DHT22;15616;40.148;-102.718;2023-02-20T09:34:39;20.40;51.20
28374;DHT22;15616;40.148;-102.718;2023-02-20T09:37:05;20.40;51.20
28374;DHT22;15616;40.148;-102.718;2023-02-20T09:39:33;20.40;51.10
28374;DHT22;15616;40.148;-102.718;2023-02-20T09:42:21;20.40;51.10
28374;DHT22;15616;40.148;-102.718;2023-02-20T09:45:26;20.30;51.10
28374;DHT22;15616;40.148;-102.718;2023-02-20T09:48:11;20.40;51.10
28374;DHT22;15616;40.148;-102.718;2023-02-20T09:51:04;20.40;51.20
28374;DHT22;15616;40.148;-102.718;2023-02-20T09:53:38;20.40;51.10
28374;DHT22;15616;40.148;-102.718;2023-02-20T09:56:15;20.30;51.20
28374;DHT22;15616;40.148;-102.718;2023-02-20T09:58:56;20.30;51.20
28374;DHT22;15616;40.148;-102.718;2023-02-20T10:01:25;20.40;51.30
28374;DHT22;15616;40.148;-102.718;2023-02-20T10:04:06;20.30;51.30
28374;DHT22;15616;40.148;-102.718;2023-02-20T10:06:35;20.30;51.30
28374;DHT22;15616;40.148;-102.718;2023-02-20T10:09:02;20.30;51.20
28374;DHT22;15616;40.148;-102.718;2023-02-20T10:11:40;20.30;51.30
28374;DHT22;15616;40.148;-102.718;2023-02-20T10:14:32;20.30;51.30
28374;DHT22;15616;40.148;-102.718;2023-02-20T10:25:30;20.40;51.30
28374;DHT22;15616;40.148;-102.718;2023-02-20T10:28:15;20.40;51.30
28374;DHT22;15616;40.148;-102.718;2023-02-20T10:33:30;20.30;51.40
28374;DHT22;15616;40.148;-102.718;2023-02-20T10:36:25;20.40;51.40
28374;DHT22;15616;40.148;-102.718;2023-02-20T10:38:59;20.40;51.30
28374;DHT22;15616;40.148;-102.718;2023-02-20T10:44:18;20.40;51.30
28374;DHT22;15616;40.148;-102.718;2023-02-20T10:47:02;20.40;51.30
28374;DHT22;15616;40.148;-102.718;2023-02-20T10:52:12;20.30;51.20
28374;DHT22;15616;40.148;-102.718;2023-02-20T10:54:54;20.40;51.30
28374;DHT22;15616;40.148;-102.718;2023-02-20T10:57:31;20.40;51.20
28374;DHT22;15616;40.148;-102.718;2023-02-20T11:00:08;20.40;51.20
28374;DHT22;15616;40.148;-102.718;2023-02-20T11:02:39;20.40;51.20
28374;DHT22;15616;40.148;-102.718;2023-02-20T11:05:16;20.40;51.20
28374;DHT22;15616;40.148;-102.718;2023-02-20T11:07:42;20.40;51.20
28374;DHT22;15616;40.148;-102.718;2023-02-20T11:10:08;20.40;51.20
28374;DHT22;15616;40.148;-102.718;2023-02-20T11:12:45;20.40;51.20
28374;DHT22;15616;40.148;-102.718;2023-02-20T11:15:15;20.40;51.30
28374;DHT22;15616;40.148;-102.718;2023-02-20T11:17:43;20.40;51.20
28374;DHT22;15616;40.148;-102.718;2023-02-20T11:22:59;20.50;51.10
28374;DHT22;15616;40.148;-102.718;2023-02-20T11:25:31;20.40;51.20
28374;DHT22;15616;40.148;-102.718;2023-02-20T11:28:22;20.40;51.20
28374;DHT22;15616;40.148;-102.718;2023-02-20T11:31:00;20.40;51.20
28374;DHT22;15616;40.148;-102.718;2023-02-20T11:33:30;20.40;51.20
28374;DHT22;15616;40.148;-102.718;2023-02-20T11:36:24;20.40;51.20
28374;DHT22;15616;40.148;-102.718;2023-02-20T11:39:00;20.50;51.90
28374;DHT22;15616;40.148;-102.718;2023-02-20T11:41:34;20.40;51.20
28374;DHT22;15616;40.148;-102.718;2023-02-20T11:46:38;20.50;51.20
28374;DHT22;15616;40.148;-102.718;2023-02-20T11:54:22;20.40;51.40
28374;DHT22;15616;40.148;-102.718;2023-02-20T11:59:40;20.50;51.40
28374;DHT22;15616;40.148;-102.718;2023-02-20T12:02:26;20.40;51.30
28374;DHT22;15616;40.148;-102.718;2023-02-20T12:05:06;20.50;51.30
28374;DHT22;15616;40.148;-102.718;2023-02-20T12:10:38;20.50;51.30
28374;DHT22;15616;40.148;-102.718;2023-02-20T12:13:12;20.50;51.30
28374;DHT22;15616;40.148;-102.718;2023-02-20T12:15:39;20.50;51.30
28374;DHT22;15616;40.148;-102.718;2023-02-20T12:18:37;20.50;51.30
28374;DHT22;15616;40.148;-102.718;2023-02-20T12:21:25;20.50;51.20
28374;DHT22;15616;40.148;-102.718;2023-02-20T12:24:24;20.50;51.30
28374;DHT22;15616;40.148;-102.718;2023-02-20T12:26:55;20.50;51.40
28374;DHT22;15616;40.148;-102.718;2023-02-20T12:29:45;20.40;51.30
28374;DHT22;15616;40.148;-102.718;2023-02-20T12:34:59;20.40;51.40
28374;DHT22;15616;40.148;-102.718;2023-02-20T12:37:46;20.50;51.30
28374;DHT22;15616;40.148;-102.718;2023-02-20T12:43:05;20.40;51.30
28374;DHT22;15616;40.148;-102.718;2023-02-20T12:46:30;20.40;51.50
28374;DHT22;15616;40.148;-102.718;2023-02-20T12:56:53;20.50;51.30
28374;DHT22;15616;40.148;-102.718;2023-02-20T13:02:20;20.50;51.30
28374;DHT22;15616;40.148;-102.718;2023-02-20T13:04:54;20.50;51.30
28374;DHT22;15616;40.148;-102.718;2023-02-20T13:07:54;20.50;51.30
28374;DHT22;15616;40.148;-102.718;2023-02-20T13:10:29;20.50;51.20
28374;DHT22;15616;40.148;-102.718;2023-02-20T13:12:58;20.50;51.20
28374;DHT22;15616;40.148;-102.718;2023-02-20T13:20:57;20.50;51.30
28374;DHT22;15616;40.148;-102.718;2023-02-20T13:23:28;20.50;51.20
28374;DHT22;15616;40.148;-102.718;2023-02-20T13:25:55;20.50;51.30
28374;DHT22;15616;40.148;-102.718;2023-02-20T13:31:24;20.50;51.20
28374;DHT22;15616;40.148;-102.718;2023-02-20T13:36:41;20.50;51.30
28374;DHT22;15616;40.148;-102.718;2023-02-20T13:41:59;20.60;51.20
28374;DHT22;15616;40.148;-102.718;2023-02-20T13:57:42;20.50;51.20
28374;DHT22;15616;40.148;-102.718;2023-02-20T14:00:24;20.50;51.20
28374;DHT22;15616;40.148;-102.718;2023-02-20T14:02:51;20.50;51.20
28374;DHT22;15616;40.148;-102.718;2023-02-20T14:05:21;20.50;51.20
28374;DHT22;15616;40.148;-102.718;2023-02-20T14:07:48;20.50;51.30
28374;DHT22;15616;40.148;-102.718;2023-02-20T14:12:45;20.50;51.20
28374;DHT22;15616;40.148;-102.718;2023-02-20T14:15:12;20.50;51.20
28374;DHT22;15616;40.148;-102.718;2023-02-20T14:17:41;20.50;51.20
28374;DHT22;15616;40.148;-102.718;2023-02-20T14:20:18;20.50;51.20
28374;DHT22;15616;40.148;-102.718;2023-02-20T14:22:45;20.50;51.20
28374;DHT22;15616;40.148;-102.718;2023-02-20T14:27:37;20.50;51.30
28374;DHT22;15616;40.148;-102.718;2023-02-20T14:30:21;20.50;51.20
28374;DHT22;15616;40.148;-102.718;2023-02-20T14:32:54;20.50;51.20
28374;DHT22;15616;40.148;-102.718;2023-02-20T14:35:54;20.50;51.30
28374;DHT22;15616;40.148;-102.718;2023-02-20T14:38:59;20.50;51.20
28374;DHT22;15616;40.148;-102.718;2023-02-20T14:41:29;20.50;51.20
28374;DHT22;15616;40.148;-102.718;2023-02-20T14:43:58;20.50;51.30
28374;DHT22;15616;40.148;-102.718;2023-02-20T14:46:30;20.50;51.30
28374;DHT22;15616;40.148;-102.718;2023-02-20T14:49:11;20.50;51.30
28374;DHT22;15616;40.148;-102.718;2023-02-20T14:51:38;20.50;51.30
28374;DHT22;15616;40.148;-102.718;2023-02-20T14:56:39;20.50;51.20
28374;DHT22;15616;40.148;-102.718;2023-02-20T14:59:24;20.50;51.20
28374;DHT22;15616;40.148;-102.718;2023-02-20T15:01:52;20.50;51.20
28374;DHT22;15616;40.148;-102.718;2023-02-20T15:04:19;20.50;51.20
28374;DHT22;15616;40.148;-102.718;2023-02-20T15:06:47;20.50;51.20
28374;DHT22;15616;40.148;-102.718;2023-02-20T15:09:13;20.50;51.30
28374;DHT22;15616;40.148;-102.718;2023-02-20T15:11:51;20.50;51.30
28374;DHT22;15616;40.148;-102.718;2023-02-20T15:14:24;20.50;51.30
28374;DHT22;15616;40.148;-102.718;2023-02-20T15:19:40;20.50;51.30
28374;DHT22;15616;40.148;-102.718;2023-02-20T15:22:29;20.50;51.30
28374;DHT22;15616;40.148;-102.718;2023-02-20T15:25:29;20.50;51.40
28374;DHT22;15616;40.148;-102.718;2023-02-20T15:30:33;20.50;51.40
28374;DHT22;15616;40.148;-102.718;2023-02-20T15:33:00;20.50;51.40
28374;DHT22;15616;40.148;-102.718;2023-02-20T15:35:28;20.50;51.40
28374;DHT22;15616;40.148;-102.718;2023-02-20T15:37:59;20.50;51.40
28374;DHT22;15616;40.148;-102.718;2023-02-20T15:40:35;20.50;51.30
28374;DHT22;15616;40.148;-102.718;2023-02-20T15:43:01;20.50;51.20
28374;DHT22;15616;40.148;-102.718;2023-02-20T15:45:28;20.50;51.20
28374;DHT22;15616;40.148;-102.718;2023-02-20T15:47:56;20.50;51.10
28374;DHT22;15616;40.148;-102.718;2023-02-20T15:50:23;20.50;51.10
28374;DHT22;15616;40.148;-102.718;2023-02-20T15:52:52;20.50;51.20
28374;DHT22;15616;40.148;-102.718;2023-02-20T15:55:19;20.50;51.20
28374;DHT22;15616;40.148;-102.718;2023-02-20T15:57:48;20.50;51.30
28374;DHT22;15616;40.148;-102.718;2023-02-20T16:02:45;20.50;51.30
28374;DHT22;15616;40.148;-102.718;2023-02-20T16:05:10;20.50;51.30
28374;DHT22;15616;40.148;-102.718;2023-02-20T16:07:36;20.50;51.20
28374;DHT22;15616;40.148;-102.718;2023-02-20T16:10:03;20.50;51.20
28374;DHT22;15616;40.148;-102.718;2023-02-20T16:12:29;20.50;51.20
28374;DHT22;15616;40.148;-102.718;2023-02-20T16:14:58;20.50;51.20
28374;DHT22;15616;40.148;-102.718;2023-02-20T16:17:26;20.50;51.90
28374;DHT22;15616;40.148;-102.718;2023-02-20T16:19:54;20.60;51.20
28374;DHT22;15616;40.148;-102.718;2023-02-20T16:22:20;20.50;51.10
28374;DHT22;15616;40.148;-102.718;2023-02-20T16:24:46;20.60;51.20
28374;DHT22;15616;40.148;-102.718;2023-02-20T16:27:24;20.50;51.20
28374;DHT22;15616;40.148;-102.718;2023-02-20T16:29:51;20.50;51.20
28374;DHT22;15616;40.148;-102.718;2023-02-20T16:32:20;20.50;51.20
28374;DHT22;15616;40.148;-102.718;2023-02-20T16:34:47;20.50;51.30
28374;DHT22;15616;40.148;-102.718;2023-02-20T16:37:13;20.50;51.30
28374;DHT22;15616;40.148;-102.718;2023-02-20T16:39:40;20.50;51.20
28374;DHT22;15616;40.148;-102.718;2023-02-20T16:42:28;20.50;51.20
28374;DHT22;15616;40.148;-102.718;2023-02-20T16:44:58;20.50;51.20
28374;DHT22;15616;40.148;-102.718;2023-02-20T16:47:26;20.50;51.20
28374;DHT22;15616;40.148;-102.718;2023-02-20T16:49:52;20.50;51.30
28374;DHT22;15616;40.148;-102.718;2023-02-20T16:52:26;20.50;51.30
28374;DHT22;15616;40.148;-102.718;2023-02-20T16:54:53;20.40;51.20
28374;DHT22;15616;40.148;-102.718;2023-02-20T16:57:20;20.50;51.30
28374;DHT22;15616;40.148;-102.718;2023-02-20T16:59:53;20.50;51.30
28374;DHT22;15616;40.148;-102.718;2023-02-20T17:02:22;20.50;51.30
28374;DHT22;15616;40.148;-102.718;2023-02-20T17:04:48;20.50;51.30
28374;DHT22;15616;40.148;-102.718;2023-02-20T17:07:16;20.50;51.30
28374;DHT22;15616;40.148;-102.718;2023-02-20T17:09:42;20.50;51.30
28374;DHT22;15616;40.148;-102.718;2023-02-20T17:12:09;20.50;51.30